createdAt,value
2023-04-22T00:01:34.042Z,100.00
2023-04-22T00:04:02.324Z,100.00
2023-04-22T00:06:31.418Z,100.00
2023-04-22T00:08:59.304Z,100.00
2023-04-22T00:11:27.100Z,100.00
2023-04-22T00:13:56.203Z,100.00
2023-04-22T00:16:23.984Z,100.00
2023-04-22T00:18:51.650Z,100.00
2023-04-22T00:21:19.278Z,100.00
2023-04-22T00:23:47.112Z,100.00
2023-04-22T00:26:15.271Z,100.00
2023-04-22T00:28:42.995Z,100.00
2023-04-22T00:31:13.116Z,100.00
2023-04-22T00:33:41.048Z,100.00
2023-04-22T00:36:09.024Z,100.00
2023-04-22T00:38:36.652Z,100.00
2023-04-22T00:41:04.456Z,100.00
2023-04-22T00:43:32.077Z,100.00
2023-04-22T00:46:00.216Z,100.00
2023-04-22T00:48:30.912Z,100.00
2023-04-22T00:50:58.529Z,100.00
2023-04-22T00:53:26.316Z,100.00
2023-04-22T00:55:54.124Z,100.00
2023-04-22T00:58:23.809Z,100.00
2023-04-22T01:00:52.878Z,100.00
2023-04-22T01:03:22.349Z,100.00
2023-04-22T01:05:51.865Z,100.00
2023-04-22T01:08:19.468Z,100.00
2023-04-22T01:10:47.217Z,100.00
2023-04-22T01:13:15.169Z,100.00
2023-04-22T01:15:42.775Z,100.00
2023-04-22T01:18:11.270Z,100.00
2023-04-22T01:20:38.973Z,100.00
2023-04-22T01:23:16.262Z,100.00
2023-04-22T01:25:44.556Z,100.00
2023-04-22T01:28:12.512Z,100.00
2023-04-22T01:30:40.627Z,100.00
2023-04-22T01:33:08.678Z,100.00
2023-04-22T01:35:37.665Z,100.00
2023-04-22T01:38:06.104Z,100.00
2023-04-22T01:40:35.658Z,100.00
2023-04-22T01:43:04.179Z,100.00
2023-04-22T01:45:32.261Z,100.00
2023-04-22T01:48:00.396Z,100.00
2023-04-22T01:50:28.185Z,100.00
2023-04-22T01:52:55.867Z,100.00
2023-04-22T01:55:23.548Z,100.00
2023-04-22T01:57:53.183Z,100.00
2023-04-22T02:00:20.793Z,100.00
2023-04-22T02:02:48.729Z,100.00
2023-04-22T02:05:16.864Z,100.00
2023-04-22T02:07:44.538Z,100.00
2023-04-22T02:10:13.030Z,100.00
2023-04-22T02:12:40.600Z,100.00
2023-04-22T02:15:11.164Z,100.00
2023-04-22T02:17:39.180Z,100.00
2023-04-22T02:20:08.093Z,100.00
2023-04-22T02:22:35.973Z,100.00
2023-04-22T02:25:03.709Z,100.00
2023-04-22T02:27:31.432Z,100.00
2023-04-22T02:29:59.191Z,100.00
2023-04-22T02:32:28.201Z,100.00
2023-04-22T02:34:55.846Z,100.00
2023-04-22T02:37:23.713Z,100.00
2023-04-22T02:39:51.481Z,100.00
2023-04-22T02:42:19.118Z,100.00
2023-04-22T02:44:46.756Z,100.00
2023-04-22T02:47:14.349Z,100.00
2023-04-22T02:49:43.436Z,100.00
2023-04-22T02:52:11.138Z,100.00
2023-04-22T02:54:38.784Z,100.00
2023-04-22T02:57:06.607Z,100.00
2023-04-22T02:59:35.341Z,100.00
2023-04-22T03:02:05.943Z,100.00
2023-04-22T03:04:34.475Z,100.00
2023-04-22T03:07:04.212Z,100.00
2023-04-22T03:09:31.878Z,100.00
2023-04-22T03:11:59.548Z,100.00
2023-04-22T03:14:27.136Z,100.00
2023-04-22T03:16:54.773Z,100.00
2023-04-22T03:19:22.433Z,100.00
2023-04-22T03:21:50.012Z,100.00
2023-04-22T03:24:18.932Z,100.00
2023-04-22T03:26:46.521Z,100.00
2023-04-22T03:29:14.206Z,100.00
2023-04-22T03:31:42.820Z,100.00
2023-04-22T03:34:10.411Z,100.00
2023-04-22T03:36:38.340Z,100.00
2023-04-22T03:39:06.071Z,100.00
2023-04-22T03:41:35.014Z,100.00
2023-04-22T03:44:02.725Z,100.00
2023-04-22T03:46:30.697Z,100.00
2023-04-22T03:48:58.418Z,100.00
2023-04-22T03:51:26.048Z,100.00
2023-04-22T03:53:53.699Z,100.00
2023-04-22T03:56:21.518Z,100.00
2023-04-22T03:58:50.484Z,100.00
2023-04-22T04:01:18.217Z,100.00
2023-04-22T04:03:46.112Z,100.00
2023-04-22T04:06:13.995Z,100.00
2023-04-22T04:08:41.576Z,100.00
2023-04-22T04:11:10.840Z,100.00
2023-04-22T04:13:38.559Z,100.00
2023-04-22T04:16:08.026Z,100.00
2023-04-22T04:18:36.562Z,100.00
2023-04-22T04:21:04.532Z,100.00
2023-04-22T04:23:32.200Z,100.00
2023-04-22T04:26:02.636Z,100.00
2023-04-22T04:28:32.183Z,100.00
2023-04-22T04:30:59.911Z,100.00
2023-04-22T04:33:28.918Z,100.00
2023-04-22T04:35:56.538Z,100.00
2023-04-22T04:38:25.035Z,100.00
2023-04-22T04:40:53.734Z,100.00
2023-04-22T04:43:25.663Z,100.00
2023-04-22T04:45:53.473Z,100.00
2023-04-22T04:48:24.851Z,100.00
2023-04-22T04:50:54.229Z,100.00
2023-04-22T04:53:22.904Z,100.00
2023-04-22T04:55:50.629Z,100.00
2023-04-22T04:58:18.215Z,100.00
2023-04-22T05:00:45.809Z,100.00
2023-04-22T05:03:13.718Z,100.00
2023-04-22T05:05:41.549Z,100.00
2023-04-22T05:08:10.489Z,100.00
2023-04-22T05:10:38.209Z,100.00
2023-04-22T05:13:06.131Z,100.00
2023-04-22T05:15:33.796Z,100.00
2023-04-22T05:18:01.835Z,100.00
2023-04-22T05:20:29.459Z,100.00
2023-04-22T05:22:57.124Z,100.00
2023-04-22T05:25:26.046Z,99.99
2023-04-22T05:27:53.729Z,86.74
2023-04-22T05:30:21.461Z,81.31
2023-04-22T05:32:49.180Z,73.74
2023-04-22T05:35:17.221Z,73.03
2023-04-22T05:37:45.125Z,75.29
2023-04-22T05:40:13.179Z,70.00
2023-04-22T05:42:42.283Z,69.10
2023-04-22T05:45:10.627Z,70.23
2023-04-22T05:47:38.253Z,69.85
2023-04-22T05:50:06.805Z,65.01
2023-04-22T05:52:34.436Z,65.04
2023-04-22T05:55:02.018Z,62.58
2023-04-22T05:57:29.629Z,62.85
2023-04-22T05:59:59.681Z,58.93
2023-04-22T06:02:27.588Z,58.68
2023-04-22T06:04:55.619Z,60.07
2023-04-22T06:07:23.598Z,56.92
2023-04-22T06:09:59.435Z,56.67
2023-04-22T06:12:31.564Z,54.07
2023-04-22T06:15:00.733Z,54.18
2023-04-22T06:17:28.502Z,57.11
2023-04-22T06:19:56.105Z,50.72
2023-04-22T06:22:23.800Z,51.64
2023-04-22T06:24:51.421Z,49.92
2023-04-22T06:27:19.852Z,52.11
2023-04-22T06:29:47.465Z,50.80
2023-04-22T06:32:16.432Z,47.50
2023-04-22T06:34:44.105Z,47.33
2023-04-22T06:37:11.829Z,50.01
2023-04-22T06:39:40.024Z,46.08
2023-04-22T06:42:08.809Z,46.11
2023-04-22T06:44:36.526Z,45.76
2023-04-22T06:47:04.336Z,45.65
2023-04-22T06:49:33.504Z,45.63
2023-04-22T06:52:01.555Z,44.19
2023-04-22T06:54:29.419Z,45.51
2023-04-22T06:56:57.505Z,46.16
2023-04-22T06:59:25.295Z,43.55
2023-04-22T07:01:52.931Z,43.87
2023-04-22T07:04:21.003Z,45.99
2023-04-22T07:06:49.998Z,46.12
2023-04-22T07:09:17.597Z,44.39
2023-04-22T07:11:45.236Z,45.47
2023-04-22T07:14:12.852Z,46.99
2023-04-22T07:16:40.516Z,46.39
2023-04-22T07:19:08.327Z,45.17
2023-04-22T07:21:35.985Z,46.44
2023-04-22T07:24:05.290Z,45.03
2023-04-22T07:26:34.446Z,47.35
2023-04-22T07:29:02.174Z,46.39
2023-04-22T07:31:29.876Z,46.50
2023-04-22T07:33:57.906Z,46.67
2023-04-22T07:36:26.403Z,48.12
2023-04-22T07:38:54.162Z,48.54
2023-04-22T07:41:23.111Z,48.91
2023-04-22T07:43:50.700Z,49.87
2023-04-22T07:46:18.382Z,50.07
2023-04-22T07:48:46.031Z,50.99
2023-04-22T07:51:13.648Z,52.20
2023-04-22T07:53:41.249Z,52.30
2023-04-22T07:56:08.963Z,52.71
2023-04-22T07:58:37.981Z,51.84
2023-04-22T08:01:06.164Z,51.54
2023-04-22T08:03:33.951Z,50.84
2023-04-22T08:06:01.877Z,51.32
2023-04-22T08:08:29.591Z,50.02
2023-04-22T08:10:57.211Z,49.62
2023-04-22T08:13:24.805Z,49.68
2023-04-22T08:15:53.954Z,48.74
2023-04-22T08:18:21.970Z,48.98
2023-04-22T08:20:49.739Z,49.37
2023-04-22T08:23:17.416Z,49.96
2023-04-22T08:25:45.177Z,49.82
2023-04-22T08:28:12.923Z,50.33
2023-04-22T08:30:40.584Z,50.14
2023-04-22T08:33:09.568Z,48.51
2023-04-22T08:35:37.552Z,50.24
2023-04-22T08:38:05.167Z,49.85
2023-04-22T08:40:32.805Z,50.54
2023-04-22T08:43:00.453Z,49.58
2023-04-22T08:45:28.146Z,50.41
2023-04-22T08:47:57.002Z,51.94
2023-04-22T08:50:27.780Z,50.88
2023-04-22T08:52:55.411Z,50.53
2023-04-22T08:55:23.238Z,51.36
2023-04-22T08:57:51.320Z,50.76
2023-04-22T09:00:19.962Z,50.96
2023-04-22T09:02:48.374Z,50.21
2023-04-22T09:05:16.861Z,49.72
2023-04-22T09:07:46.134Z,48.53
2023-04-22T09:10:13.731Z,48.51
2023-04-22T09:12:42.356Z,48.95
2023-04-22T09:15:11.574Z,48.28
2023-04-22T09:17:39.412Z,49.13
2023-04-22T09:20:09.648Z,48.62
2023-04-22T09:22:42.563Z,47.61
2023-04-22T09:25:18.275Z,47.06
2023-04-22T09:27:50.411Z,47.25
2023-04-22T09:30:19.814Z,47.88
2023-04-22T09:32:54.716Z,46.59
2023-04-22T09:35:30.782Z,46.90
2023-04-22T09:37:59.005Z,46.96
2023-04-22T09:40:28.939Z,46.47
2023-04-22T09:42:58.411Z,46.68
2023-04-22T09:45:30.973Z,46.99
2023-04-22T09:48:01.979Z,47.12
2023-04-22T09:50:30.105Z,46.01
2023-04-22T09:53:01.057Z,46.38
2023-04-22T09:55:32.598Z,47.18
2023-04-22T09:58:07.089Z,47.02
2023-04-22T10:00:35.884Z,46.77
2023-04-22T10:03:03.684Z,47.47
2023-04-22T10:05:31.820Z,47.42
2023-04-22T10:07:59.482Z,47.51
2023-04-22T10:10:27.354Z,46.85
2023-04-22T10:12:56.467Z,47.04
2023-04-22T10:15:26.894Z,45.74
2023-04-22T10:17:56.906Z,46.28
2023-04-22T10:20:25.931Z,45.70
2023-04-22T10:22:54.771Z,46.00
2023-04-22T10:25:24.016Z,47.00
2023-04-22T10:28:03.310Z,46.20
2023-04-22T10:30:33.606Z,46.88
2023-04-22T10:33:35.196Z,47.18
2023-04-22T10:36:08.095Z,46.94
2023-04-22T10:38:36.008Z,47.46
2023-04-22T10:41:04.731Z,46.53
2023-04-22T10:43:51.068Z,47.11
2023-04-22T10:46:56.009Z,45.80
2023-04-22T10:49:25.422Z,46.91
2023-04-22T10:51:55.841Z,45.97
2023-04-22T10:54:58.716Z,45.26
2023-04-22T10:57:36.287Z,44.76
2023-04-22T11:00:19.541Z,45.12
2023-04-22T11:02:47.963Z,45.12
2023-04-22T11:05:25.875Z,44.53
2023-04-22T11:07:55.692Z,45.60
2023-04-22T11:10:43.018Z,45.14
2023-04-22T11:13:16.500Z,45.46
2023-04-22T11:15:47.817Z,44.71
2023-04-22T11:18:21.361Z,44.67
2023-04-22T11:20:50.573Z,44.72
2023-04-22T11:23:20.428Z,44.74
2023-04-22T11:25:48.003Z,44.44
2023-04-22T11:28:15.593Z,45.24
2023-04-22T11:30:43.167Z,44.04
2023-04-22T11:33:16.428Z,44.17
2023-04-22T11:35:44.521Z,42.84
2023-04-22T11:38:12.363Z,41.85
2023-04-22T11:40:46.791Z,42.68
2023-04-22T11:43:18.948Z,42.27
2023-04-22T11:45:48.488Z,41.54
2023-04-22T11:48:17.544Z,42.64
2023-04-22T11:50:45.524Z,42.41
2023-04-22T11:55:45.886Z,42.19
2023-04-22T11:58:15.538Z,43.23
2023-04-22T12:00:45.947Z,41.75
2023-04-22T12:03:16.123Z,41.14
2023-04-22T12:05:47.867Z,40.30
2023-04-22T12:08:17.592Z,40.38
2023-04-22T12:10:48.134Z,39.87
2023-04-22T12:13:22.793Z,40.27
2023-04-22T12:15:54.864Z,41.45
2023-04-22T12:18:30.711Z,41.70
2023-04-22T12:21:02.392Z,41.27
2023-04-22T12:23:30.049Z,41.70
2023-04-22T12:25:57.771Z,39.08
2023-04-22T12:28:25.550Z,39.68
2023-04-22T12:30:53.676Z,39.68
2023-04-22T12:33:21.442Z,38.65
2023-04-22T12:35:52.479Z,37.34
2023-04-22T12:38:21.469Z,37.58
2023-04-22T12:40:49.076Z,36.70
2023-04-22T12:43:16.660Z,36.64
2023-04-22T12:45:44.971Z,37.39
2023-04-22T12:48:12.555Z,37.26
2023-04-22T12:50:40.414Z,36.98
2023-04-22T12:53:08.230Z,36.21
2023-04-22T12:55:37.623Z,35.90
2023-04-22T12:58:05.453Z,36.74
2023-04-22T13:00:33.341Z,36.83
2023-04-22T13:03:01.217Z,37.04
2023-04-22T13:05:29.047Z,36.28
2023-04-22T13:08:06.597Z,34.92
2023-04-22T13:10:35.271Z,35.87
2023-04-22T13:13:17.900Z,35.09
2023-04-22T13:15:46.967Z,35.11
2023-04-22T13:18:15.968Z,36.18
2023-04-22T13:20:43.836Z,35.75
2023-04-22T13:23:12.869Z,34.70
2023-04-22T13:25:40.693Z,34.81
2023-04-22T13:28:11.226Z,35.25
2023-04-22T13:30:38.828Z,35.11
2023-04-22T13:33:06.741Z,35.09
2023-04-22T13:35:34.471Z,34.98
2023-04-22T13:38:02.277Z,35.30
2023-04-22T13:40:30.229Z,35.56
2023-04-22T13:42:58.179Z,35.44
2023-04-22T13:45:27.172Z,36.50
2023-04-22T13:47:55.402Z,36.08
2023-04-22T13:50:24.308Z,35.34
2023-04-22T13:52:52.325Z,35.67
2023-04-22T13:55:20.533Z,36.42
2023-04-22T13:57:48.165Z,36.51
2023-04-22T14:00:16.024Z,36.85
2023-04-22T14:02:45.681Z,37.50
2023-04-22T14:05:13.509Z,36.99
2023-04-22T14:07:41.227Z,37.38
2023-04-22T14:10:11.948Z,37.36
2023-04-22T14:12:39.664Z,37.67
2023-04-22T14:15:10.745Z,38.07
2023-04-22T14:17:38.558Z,37.94
2023-04-22T14:20:11.417Z,38.23
2023-04-22T14:22:39.755Z,38.11
2023-04-22T14:25:08.608Z,38.21
2023-04-22T14:27:36.414Z,38.53
2023-04-22T14:30:05.989Z,38.10
2023-04-22T14:32:33.785Z,37.92
2023-04-22T14:35:01.429Z,37.57
2023-04-22T14:37:31.669Z,38.03
2023-04-22T14:39:59.410Z,37.82
2023-04-22T14:42:27.054Z,37.78
2023-04-22T14:44:54.842Z,38.38
2023-04-22T14:47:22.697Z,38.50
2023-04-22T14:49:50.569Z,38.79
2023-04-22T14:52:18.248Z,38.97
2023-04-22T14:54:50.573Z,39.20
2023-04-22T14:57:19.553Z,39.19
2023-04-22T14:59:47.314Z,39.47
2023-04-22T15:02:17.202Z,39.50
2023-04-22T15:04:45.474Z,38.00
2023-04-22T15:07:13.507Z,37.91
2023-04-22T15:09:41.461Z,38.13
2023-04-22T15:12:10.835Z,37.62
2023-04-22T15:14:38.568Z,38.10
2023-04-22T15:17:06.948Z,38.29
2023-04-22T15:19:35.034Z,38.16
2023-04-22T15:22:03.086Z,38.42
2023-04-22T15:24:30.755Z,38.37
2023-04-22T15:26:59.460Z,38.56
2023-04-22T15:29:28.560Z,38.76
2023-04-22T15:31:56.700Z,39.04
2023-04-22T15:34:24.838Z,38.88
2023-04-22T15:36:52.671Z,39.04
2023-04-22T15:39:20.339Z,39.18
2023-04-22T15:41:47.997Z,38.66
2023-04-22T15:44:16.288Z,38.75
2023-04-22T15:46:46.830Z,39.13
2023-04-22T15:49:14.752Z,38.81
2023-04-22T15:51:43.128Z,38.98
2023-04-22T15:54:11.191Z,38.96
2023-04-22T15:56:38.810Z,39.07
2023-04-22T15:59:06.882Z,38.70
2023-04-22T16:01:34.569Z,40.00
2023-04-22T16:04:05.122Z,40.11
2023-04-22T16:06:33.119Z,41.07
2023-04-22T16:09:01.191Z,41.46
2023-04-22T16:11:30.319Z,41.84
2023-04-22T16:13:58.073Z,42.36
2023-04-22T16:16:27.589Z,44.49
2023-04-22T16:18:55.651Z,44.49
2023-04-22T16:21:25.100Z,45.36
2023-04-22T16:23:52.718Z,45.13
2023-04-22T16:26:20.507Z,45.78
2023-04-22T16:28:48.259Z,46.77
2023-04-22T16:31:18.141Z,47.33
2023-04-22T16:33:46.464Z,47.48
2023-04-22T16:36:14.356Z,48.05
2023-04-22T16:38:43.606Z,48.22
2023-04-22T16:41:11.569Z,48.24
2023-04-22T16:43:41.030Z,47.96
2023-04-22T16:46:08.988Z,47.93
2023-04-22T16:48:36.867Z,48.15
2023-04-22T16:51:04.791Z,48.99
2023-04-22T16:53:32.625Z,49.50
2023-04-22T16:56:01.595Z,49.67
2023-04-22T16:58:29.306Z,49.80
2023-04-22T17:00:56.929Z,50.25
2023-04-22T17:03:24.914Z,50.01
2023-04-22T17:05:52.896Z,50.25
2023-04-22T17:08:20.854Z,50.77
2023-04-22T17:10:48.553Z,50.67
2023-04-22T17:13:17.656Z,50.43
2023-04-22T17:15:45.295Z,50.97
2023-04-22T17:18:14.286Z,50.48
2023-04-22T17:20:42.553Z,50.81
2023-04-22T17:23:10.545Z,51.43
2023-04-22T17:25:38.548Z,50.44
2023-04-22T17:28:06.187Z,51.72
2023-04-22T17:30:36.039Z,51.45
2023-04-22T17:33:04.448Z,52.13
2023-04-22T17:35:32.080Z,51.85
2023-04-22T17:37:59.654Z,52.61
2023-04-22T17:40:27.259Z,53.15
2023-04-22T17:42:54.959Z,53.87
2023-04-22T17:45:22.672Z,54.67
2023-04-22T17:47:51.754Z,53.88
2023-04-22T17:50:19.687Z,54.62
2023-04-22T17:52:47.360Z,54.91
2023-04-22T17:55:15.253Z,56.23
2023-04-22T17:57:42.888Z,55.85
2023-04-22T18:00:11.582Z,57.51
2023-04-22T18:02:39.296Z,58.55
2023-04-22T18:05:09.085Z,59.12
2023-04-22T18:07:36.756Z,59.69
2023-04-22T18:10:04.813Z,61.53
2023-04-22T18:12:33.609Z,61.04
2023-04-22T18:15:01.177Z,63.01
2023-04-22T18:17:29.024Z,63.43
2023-04-22T18:20:09.713Z,62.89
2023-04-22T18:22:43.699Z,64.37
2023-04-22T18:25:11.641Z,63.70
2023-04-22T18:27:39.219Z,65.21
2023-04-22T18:30:07.944Z,67.16
2023-04-22T18:32:36.929Z,66.31
2023-04-22T18:35:05.859Z,66.80
2023-04-22T18:37:34.897Z,66.48
2023-04-22T18:40:06.125Z,65.82
2023-04-22T18:42:35.470Z,67.27
2023-04-22T18:45:04.735Z,67.32
2023-04-22T18:47:33.241Z,68.56
2023-04-22T18:50:00.890Z,67.93
2023-04-22T18:52:28.903Z,67.80
2023-04-22T18:54:56.571Z,68.92
2023-04-22T18:57:25.672Z,67.32
2023-04-22T18:59:54.230Z,67.60
2023-04-22T19:02:23.629Z,67.07
2023-04-22T19:04:53.558Z,67.70
2023-04-22T19:07:21.886Z,67.37
2023-04-22T19:09:49.559Z,67.37
2023-04-22T19:12:19.372Z,67.97
2023-04-22T19:14:48.864Z,67.46
2023-04-22T19:17:16.601Z,67.27
2023-04-22T19:19:45.366Z,67.66
2023-04-22T19:22:16.618Z,67.45
2023-04-22T19:24:45.483Z,67.62
2023-04-22T19:27:13.218Z,67.78
2023-04-22T19:29:42.915Z,68.53
2023-04-22T19:32:12.381Z,68.10
2023-04-22T19:34:40.081Z,68.44
2023-04-22T19:37:08.225Z,72.25
2023-04-22T19:39:36.313Z,90.06
2023-04-22T19:42:04.925Z,100.00
2023-04-22T19:44:32.775Z,100.00
2023-04-22T19:47:02.986Z,100.00
2023-04-22T19:49:33.478Z,100.00
2023-04-22T19:52:03.221Z,100.00
2023-04-22T19:54:31.932Z,100.00
2023-04-22T19:57:00.150Z,100.00
2023-04-22T19:59:30.971Z,100.00
2023-04-22T20:01:59.058Z,100.00
2023-04-22T20:04:27.607Z,100.00
2023-04-22T20:07:01.447Z,100.00
2023-04-22T20:09:32.740Z,100.00
2023-04-22T20:12:01.217Z,100.00
2023-04-22T20:14:29.810Z,100.00
2023-04-22T20:16:57.786Z,100.00
2023-04-22T20:19:25.547Z,100.00
2023-04-22T20:21:55.261Z,100.00
2023-04-22T20:24:25.659Z,100.00
2023-04-22T20:26:53.432Z,100.00
2023-04-22T20:29:22.610Z,100.00
2023-04-22T20:31:51.117Z,100.00
2023-04-22T20:34:19.143Z,100.00
2023-04-22T20:36:47.198Z,100.00
2023-04-22T20:39:16.646Z,100.00
2023-04-22T20:41:46.663Z,100.00
2023-04-22T20:44:14.834Z,100.00
2023-04-22T20:46:42.459Z,100.00
2023-04-22T20:49:10.978Z,100.00
2023-04-22T20:51:38.786Z,100.00
2023-04-22T20:54:17.427Z,100.00
2023-04-22T20:56:54.724Z,100.00
2023-04-22T20:59:22.852Z,100.00
2023-04-22T21:01:52.482Z,100.00
2023-04-22T21:04:21.189Z,100.00
2023-04-22T21:06:50.847Z,100.00
2023-04-22T21:09:20.737Z,100.00
2023-04-22T21:11:49.924Z,100.00
2023-04-22T21:14:20.979Z,100.00
2023-04-22T21:16:58.127Z,100.00
2023-04-22T21:19:25.956Z,100.00
2023-04-22T21:21:55.395Z,100.00
2023-04-22T21:24:23.485Z,100.00
2023-04-22T21:26:51.755Z,100.00
2023-04-22T21:29:21.429Z,100.00
2023-04-22T21:32:01.200Z,100.00
2023-04-22T21:34:32.962Z,100.00
2023-04-22T21:37:00.666Z,100.00
2023-04-22T21:39:28.774Z,100.00
2023-04-22T21:41:56.385Z,100.00
2023-04-22T21:44:25.454Z,100.00
2023-04-22T21:46:53.057Z,100.00
2023-04-22T21:49:22.924Z,100.00
2023-04-22T21:51:50.718Z,100.00
2023-04-22T21:54:18.581Z,100.00
2023-04-22T21:56:46.227Z,100.00
2023-04-22T21:59:13.807Z,100.00
2023-04-22T22:01:43.258Z,100.00
2023-04-22T22:04:15.972Z,100.00
2023-04-22T22:06:45.134Z,100.00
2023-04-22T22:09:13.627Z,100.00
2023-04-22T22:11:41.286Z,100.00
2023-04-22T22:14:08.854Z,100.00
2023-04-22T22:16:38.216Z,100.00
2023-04-22T22:19:07.444Z,100.00
2023-04-22T22:21:36.040Z,100.00
2023-04-22T22:24:04.430Z,100.00
2023-04-22T22:26:32.460Z,100.00
2023-04-22T22:29:00.413Z,100.00
2023-04-22T22:31:28.953Z,100.00
2023-04-22T22:33:57.403Z,100.00
2023-04-22T22:36:28.542Z,100.00
2023-04-22T22:38:56.219Z,100.00
2023-04-22T22:41:24.194Z,100.00
2023-04-22T22:43:51.825Z,100.00
2023-04-22T22:46:19.530Z,100.00
2023-04-22T22:48:47.797Z,100.00
2023-04-22T22:51:18.537Z,100.00
2023-04-22T22:53:48.148Z,100.00
2023-04-22T22:56:17.949Z,100.00
2023-04-22T22:58:46.070Z,100.00
2023-04-22T23:01:13.786Z,100.00
2023-04-22T23:03:41.748Z,100.00
2023-04-22T23:06:09.493Z,100.00
2023-04-22T23:08:37.146Z,100.00
2023-04-22T23:11:06.160Z,100.00
2023-04-22T23:13:33.938Z,100.00
2023-04-22T23:16:02.514Z,100.00
2023-04-22T23:18:30.845Z,100.00
2023-04-22T23:21:01.143Z,100.00
2023-04-22T23:23:30.147Z,100.00
2023-04-22T23:26:00.599Z,100.00
2023-04-22T23:28:30.296Z,100.00
2023-04-22T23:30:58.532Z,100.00
2023-04-22T23:33:26.844Z,100.00
2023-04-22T23:35:56.567Z,100.00
2023-04-22T23:38:24.542Z,100.00
2023-04-22T23:40:52.258Z,100.00
2023-04-22T23:43:19.872Z,100.00
2023-04-22T23:45:48.997Z,100.00
2023-04-22T23:48:16.671Z,100.00
2023-04-22T23:50:44.275Z,100.00
2023-04-22T23:53:11.885Z,100.00
2023-04-22T23:55:40.167Z,100.00
2023-04-22T23:58:08.048Z,100.00
